Wickliffe, Ohio
Current Conditions -  °F | °C
As of 10:45 AM on Saturday 22 Nov 2014 (Local Time) from KCGF Reporting Station
Rain Showers Rain Showers  
Wind Chill: 31°   Ceiling: 2000
Heat Index: 39°   Visibility: 7mi
Dew Point: 34°   Wind: 14mph
Humidity: 81%   Direction: 230°SW
Pressure: 30.15"   Gusts: 23mph
Location:  41.6°N, 81.48°W
Report Text: KCGF 221545Z 23012G20KT 7SM -SHRA BKN020 OVC035 04/01 A3015
Loading
Personal Weather Stations






























Interactive Weather Map New forecast layout! Learn more

10-Day Weather Forecast

Advertisements
Track Severe Weather on mobile